CheckWX is a tool to help pilots better visualize weather data.  It is not intended as a substitute for an official pre-flight weather briefing.

07:23:48 UTC

KACY TAF
Atlantic City International Airport
Atlantic City, New Jersey, USA
KACY 041130Z 0412/0512 01008KT P6SM SCT015 OVC025 TEMPO 0412/0414 OVC015 FM041400 03011G18KT P6SM OVC015 FM041900 05010KT P6SM OVC025 FM042100 07007KT P6SM SCT025 BKN040 FM050200 VRB04KT P6SM SCT025 SCT040

Apr-4@
12:00 UTC

Apr-4 @ 12:00 UTC

Apr-4@
14:00 UTC

Apr-4 @ 14:00 UTC

TAF KACY 041130Z 0412/0512 01008KT P6SM SCT015 OVC025

Expired

Wind
  • 010° at 8 KTS
Cloud Levels
  • Scattered at 1,500' AGL
  • Overcast at 2,500' AGL

Apr-4@
12:00 UTC

Apr-4 @ 12:00 UTC

Apr-4@
14:00 UTC

Apr-4 @ 14:00 UTC

TEMPO 0412/0414 OVC015

Expired

Cloud Levels
  • Overcast at 1,500' AGL

Apr-4@
14:00 UTC

Apr-4 @ 14:00 UTC

Apr-4@
19:00 UTC

Apr-4 @ 19:00 UTC

FM041400 03011G18KT P6SM OVC015

Expired

Wind
  • 030° at 11 KTS
  • {Gusting to 18 KTS
Cloud Levels
  • Overcast at 1,500' AGL

Apr-4@
19:00 UTC

Apr-4 @ 19:00 UTC

Apr-4@
21:00 UTC

Apr-4 @ 21:00 UTC

FM041900 05010KT P6SM OVC025

Expired

Wind
  • 050° at 10 KTS
Cloud Levels
  • Overcast at 2,500' AGL

Apr-4@
21:00 UTC

Apr-4 @ 21:00 UTC

Apr-5@
02:00 UTC

Apr-5 @ 02:00 UTC

FM042100 07007KT P6SM SCT025 BKN040

Expired

Wind
  • 070° at 7 KTS
Cloud Levels
  • Scattered at 2,500' AGL
  • Broken at 4,000' AGL

Apr-5@
02:00 UTC

Apr-5 @ 02:00 UTC

Apr-5@
12:00 UTC

Apr-5 @ 12:00 UTC

FM050200 VRB04KT P6SM SCT025 SCT040

From

From Standard forecast or significant change

Wind
  • Variable at 4 KTS
Cloud Levels
  • Scattered at 2,500' AGL
  • Scattered at 4,000' AGL